sensor_id;sensor_type;location;lat;lon;timestamp;P1;durP1;ratioP1;P2;durP2;ratioP2
25439;SDS011;13365;52.208;5.488;2023-04-19T00:02:24;6.80;;;3.70;;
25439;SDS011;13365;52.208;5.488;2023-04-19T00:04:49;5.45;;;3.38;;
25439;SDS011;13365;52.208;5.488;2023-04-19T00:07:15;5.40;;;3.03;;
25439;SDS011;13365;52.208;5.488;2023-04-19T00:09:42;7.47;;;3.55;;
25439;SDS011;13365;52.208;5.488;2023-04-19T00:12:08;7.60;;;4.03;;
25439;SDS011;13365;52.208;5.488;2023-04-19T00:14:33;8.90;;;3.72;;
25439;SDS011;13365;52.208;5.488;2023-04-19T00:16:59;4.88;;;2.65;;
25439;SDS011;13365;52.208;5.488;2023-04-19T00:19:25;6.32;;;3.45;;
25439;SDS011;13365;52.208;5.488;2023-04-19T00:21:50;4.68;;;2.75;;
25439;SDS011;13365;52.208;5.488;2023-04-19T00:24:16;5.28;;;2.47;;
25439;SDS011;13365;52.208;5.488;2023-04-19T00:26:42;6.20;;;3.35;;
25439;SDS011;13365;52.208;5.488;2023-04-19T00:29:08;11.48;;;3.95;;
25439;SDS011;13365;52.208;5.488;2023-04-19T00:31:33;10.55;;;4.47;;
25439;SDS011;13365;52.208;5.488;2023-04-19T00:33:59;8.60;;;2.38;;
25439;SDS011;13365;52.208;5.488;2023-04-19T00:36:24;7.38;;;3.83;;
25439;SDS011;13365;52.208;5.488;2023-04-19T00:38:51;9.30;;;3.70;;
25439;SDS011;13365;52.208;5.488;2023-04-19T00:41:16;7.47;;;3.53;;
25439;SDS011;13365;52.208;5.488;2023-04-19T00:43:42;10.30;;;4.38;;
25439;SDS011;13365;52.208;5.488;2023-04-19T00:46:07;6.95;;;3.50;;
25439;SDS011;13365;52.208;5.488;2023-04-19T00:48:33;7.03;;;3.58;;
25439;SDS011;13365;52.208;5.488;2023-04-19T00:51:03;7.20;;;4.07;;
25439;SDS011;13365;52.208;5.488;2023-04-19T00:53:28;6.43;;;3.80;;
25439;SDS011;13365;52.208;5.488;2023-04-19T00:55:55;7.75;;;4.28;;
25439;SDS011;13365;52.208;5.488;2023-04-19T00:58:23;12.85;;;3.80;;
25439;SDS011;13365;52.208;5.488;2023-04-19T01:00:49;7.45;;;3.90;;
25439;SDS011;13365;52.208;5.488;2023-04-19T01:03:15;8.15;;;4.60;;
25439;SDS011;13365;52.208;5.488;2023-04-19T01:05:41;5.82;;;3.30;;
25439;SDS011;13365;52.208;5.488;2023-04-19T01:08:06;5.15;;;2.72;;
25439;SDS011;13365;52.208;5.488;2023-04-19T01:10:32;7.00;;;4.38;;
25439;SDS011;13365;52.208;5.488;2023-04-19T01:12:58;7.05;;;4.28;;
25439;SDS011;13365;52.208;5.488;2023-04-19T01:15:23;9.27;;;4.13;;
25439;SDS011;13365;52.208;5.488;2023-04-19T01:17:49;5.25;;;3.65;;
25439;SDS011;13365;52.208;5.488;2023-04-19T01:20:15;6.97;;;3.67;;
25439;SDS011;13365;52.208;5.488;2023-04-19T01:22:40;7.78;;;3.90;;
25439;SDS011;13365;52.208;5.488;2023-04-19T01:25:06;7.57;;;3.65;;
25439;SDS011;13365;52.208;5.488;2023-04-19T01:27:32;7.25;;;3.60;;
25439;SDS011;13365;52.208;5.488;2023-04-19T01:29:58;7.38;;;4.30;;
25439;SDS011;13365;52.208;5.488;2023-04-19T01:32:24;6.75;;;4.38;;
25439;SDS011;13365;52.208;5.488;2023-04-19T01:34:52;7.78;;;4.00;;
25439;SDS011;13365;52.208;5.488;2023-04-19T01:37:18;9.15;;;3.42;;
25439;SDS011;13365;52.208;5.488;2023-04-19T01:39:43;8.73;;;4.32;;
25439;SDS011;13365;52.208;5.488;2023-04-19T01:42:09;9.85;;;4.78;;
25439;SDS011;13365;52.208;5.488;2023-04-19T01:44:34;7.22;;;3.97;;
25439;SDS011;13365;52.208;5.488;2023-04-19T01:47:00;8.00;;;4.30;;
25439;SDS011;13365;52.208;5.488;2023-04-19T01:49:25;6.35;;;3.60;;
25439;SDS011;13365;52.208;5.488;2023-04-19T01:51:51;6.80;;;4.93;;
25439;SDS011;13365;52.208;5.488;2023-04-19T01:54:16;5.13;;;3.22;;
25439;SDS011;13365;52.208;5.488;2023-04-19T01:56:42;7.97;;;3.83;;
25439;SDS011;13365;52.208;5.488;2023-04-19T01:59:08;7.85;;;4.40;;
25439;SDS011;13365;52.208;5.488;2023-04-19T02:01:33;8.98;;;4.38;;
25439;SDS011;13365;52.208;5.488;2023-04-19T02:03:59;8.25;;;4.63;;
25439;SDS011;13365;52.208;5.488;2023-04-19T02:06:25;4.45;;;2.53;;
25439;SDS011;13365;52.208;5.488;2023-04-19T02:08:51;8.93;;;3.85;;
25439;SDS011;13365;52.208;5.488;2023-04-19T02:11:17;8.15;;;3.80;;
25439;SDS011;13365;52.208;5.488;2023-04-19T02:13:42;6.68;;;3.65;;
25439;SDS011;13365;52.208;5.488;2023-04-19T02:16:08;8.38;;;3.40;;
25439;SDS011;13365;52.208;5.488;2023-04-19T02:18:34;6.63;;;4.13;;
25439;SDS011;13365;52.208;5.488;2023-04-19T02:21:02;23.90;;;4.25;;
25439;SDS011;13365;52.208;5.488;2023-04-19T02:23:28;7.25;;;3.67;;
25439;SDS011;13365;52.208;5.488;2023-04-19T02:25:54;6.43;;;3.78;;
25439;SDS011;13365;52.208;5.488;2023-04-19T02:28:19;8.85;;;3.85;;
25439;SDS011;13365;52.208;5.488;2023-04-19T02:30:45;6.85;;;3.20;;
25439;SDS011;13365;52.208;5.488;2023-04-19T02:33:10;14.18;;;4.57;;
25439;SDS011;13365;52.208;5.488;2023-04-19T02:35:36;12.15;;;3.40;;
25439;SDS011;13365;52.208;5.488;2023-04-19T02:38:02;7.00;;;3.55;;
25439;SDS011;13365;52.208;5.488;2023-04-19T02:40:28;6.28;;;3.78;;
25439;SDS011;13365;52.208;5.488;2023-04-19T02:42:54;11.50;;;3.88;;
25439;SDS011;13365;52.208;5.488;2023-04-19T02:45:20;4.07;;;3.03;;
25439;SDS011;13365;52.208;5.488;2023-04-19T02:47:46;5.85;;;3.63;;
25439;SDS011;13365;52.208;5.488;2023-04-19T02:50:12;5.30;;;3.33;;
25439;SDS011;13365;52.208;5.488;2023-04-19T02:52:39;7.97;;;3.53;;
25439;SDS011;13365;52.208;5.488;2023-04-19T02:55:05;4.50;;;2.92;;
25439;SDS011;13365;52.208;5.488;2023-04-19T02:57:31;5.03;;;3.15;;
25439;SDS011;13365;52.208;5.488;2023-04-19T02:59:56;6.85;;;3.60;;
25439;SDS011;13365;52.208;5.488;2023-04-19T03:02:23;7.13;;;3.22;;
25439;SDS011;13365;52.208;5.488;2023-04-19T03:04:49;8.10;;;3.60;;
25439;SDS011;13365;52.208;5.488;2023-04-19T03:07:14;7.22;;;3.83;;
25439;SDS011;13365;52.208;5.488;2023-04-19T03:09:40;5.85;;;2.83;;
25439;SDS011;13365;52.208;5.488;2023-04-19T03:12:06;5.00;;;2.70;;
25439;SDS011;13365;52.208;5.488;2023-04-19T03:14:32;7.38;;;3.90;;
25439;SDS011;13365;52.208;5.488;2023-04-19T03:17:00;9.93;;;3.58;;
25439;SDS011;13365;52.208;5.488;2023-04-19T03:19:26;6.97;;;3.03;;
25439;SDS011;13365;52.208;5.488;2023-04-19T03:21:51;11.85;;;3.90;;
25439;SDS011;13365;52.208;5.488;2023-04-19T03:24:17;10.60;;;4.20;;
25439;SDS011;13365;52.208;5.488;2023-04-19T03:26:43;3.97;;;2.25;;
25439;SDS011;13365;52.208;5.488;2023-04-19T03:29:09;8.07;;;4.05;;
25439;SDS011;13365;52.208;5.488;2023-04-19T03:31:35;6.15;;;3.50;;
25439;SDS011;13365;52.208;5.488;2023-04-19T03:34:01;4.45;;;2.20;;
25439;SDS011;13365;52.208;5.488;2023-04-19T03:36:27;6.88;;;2.88;;
25439;SDS011;13365;52.208;5.488;2023-04-19T03:38:53;5.22;;;2.92;;
25439;SDS011;13365;52.208;5.488;2023-04-19T03:41:19;5.00;;;3.33;;
25439;SDS011;13365;52.208;5.488;2023-04-19T03:43:47;6.78;;;3.90;;
25439;SDS011;13365;52.208;5.488;2023-04-19T03:46:12;6.18;;;3.22;;
25439;SDS011;13365;52.208;5.488;2023-04-19T03:48:38;5.78;;;3.20;;
25439;SDS011;13365;52.208;5.488;2023-04-19T03:51:04;5.43;;;2.75;;
25439;SDS011;13365;52.208;5.488;2023-04-19T03:53:30;7.15;;;3.55;;
25439;SDS011;13365;52.208;5.488;2023-04-19T03:55:55;6.15;;;3.60;;
25439;SDS011;13365;52.208;5.488;2023-04-19T03:58:21;4.85;;;3.00;;
25439;SDS011;13365;52.208;5.488;2023-04-19T04:00:46;4.82;;;2.92;;
25439;SDS011;13365;52.208;5.488;2023-04-19T04:03:12;5.78;;;3.22;;
25439;SDS011;13365;52.208;5.488;2023-04-19T04:05:37;6.75;;;2.95;;
25439;SDS011;13365;52.208;5.488;2023-04-19T04:08:03;5.18;;;2.85;;
25439;SDS011;13365;52.208;5.488;2023-04-19T04:10:29;6.35;;;2.95;;
25439;SDS011;13365;52.208;5.488;2023-04-19T04:12:54;5.68;;;2.92;;
25439;SDS011;13365;52.208;5.488;2023-04-19T04:15:20;8.05;;;3.65;;
25439;SDS011;13365;52.208;5.488;2023-04-19T04:17:45;7.45;;;3.60;;
25439;SDS011;13365;52.208;5.488;2023-04-19T04:20:11;6.53;;;3.30;;
25439;SDS011;13365;52.208;5.488;2023-04-19T04:22:41;7.63;;;3.47;;
25439;SDS011;13365;52.208;5.488;2023-04-19T04:25:07;7.30;;;2.60;;
25439;SDS011;13365;52.208;5.488;2023-04-19T04:27:33;7.30;;;3.55;;
25439;SDS011;13365;52.208;5.488;2023-04-19T04:29:59;5.22;;;3.17;;
25439;SDS011;13365;52.208;5.488;2023-04-19T04:32:25;5.07;;;2.78;;
25439;SDS011;13365;52.208;5.488;2023-04-19T04:34:51;4.95;;;2.53;;
25439;SDS011;13365;52.208;5.488;2023-04-19T04:37:17;6.28;;;4.30;;
25439;SDS011;13365;52.208;5.488;2023-04-19T04:39:42;5.57;;;2.83;;
25439;SDS011;13365;52.208;5.488;2023-04-19T04:42:08;4.78;;;3.13;;
25439;SDS011;13365;52.208;5.488;2023-04-19T04:44:34;4.43;;;2.60;;
25439;SDS011;13365;52.208;5.488;2023-04-19T04:47:00;11.07;;;3.75;;
25439;SDS011;13365;52.208;5.488;2023-04-19T04:49:26;6.80;;;3.20;;
25439;SDS011;13365;52.208;5.488;2023-04-19T04:51:52;5.45;;;2.85;;
25439;SDS011;13365;52.208;5.488;2023-04-19T04:54:18;5.03;;;3.17;;
25439;SDS011;13365;52.208;5.488;2023-04-19T04:56:43;10.20;;;4.28;;
25439;SDS011;13365;52.208;5.488;2023-04-19T04:59:09;10.65;;;3.47;;
25439;SDS011;13365;52.208;5.488;2023-04-19T05:01:35;4.68;;;2.80;;
25439;SDS011;13365;52.208;5.488;2023-04-19T05:04:00;7.90;;;3.50;;
25439;SDS011;13365;52.208;5.488;2023-04-19T05:06:26;9.25;;;3.78;;
25439;SDS011;13365;52.208;5.488;2023-04-19T05:08:51;11.75;;;4.20;;
25439;SDS011;13365;52.208;5.488;2023-04-19T05:11:17;6.70;;;3.22;;
25439;SDS011;13365;52.208;5.488;2023-04-19T05:13:42;7.25;;;3.30;;
25439;SDS011;13365;52.208;5.488;2023-04-19T05:16:08;8.25;;;2.60;;
25439;SDS011;13365;52.208;5.488;2023-04-19T05:18:34;4.85;;;2.83;;
25439;SDS011;13365;52.208;5.488;2023-04-19T05:20:59;6.35;;;3.35;;
25439;SDS011;13365;52.208;5.488;2023-04-19T05:23:25;6.25;;;3.22;;
25439;SDS011;13365;52.208;5.488;2023-04-19T05:25:50;3.95;;;2.60;;
25439;SDS011;13365;52.208;5.488;2023-04-19T05:28:16;5.93;;;3.22;;
25439;SDS011;13365;52.208;5.488;2023-04-19T05:30:41;3.58;;;2.58;;
25439;SDS011;13365;52.208;5.488;2023-04-19T05:33:07;9.55;;;3.10;;
25439;SDS011;13365;52.208;5.488;2023-04-19T05:35:32;3.95;;;2.45;;
25439;SDS011;13365;52.208;5.488;2023-04-19T05:37:58;6.65;;;2.85;;
25439;SDS011;13365;52.208;5.488;2023-04-19T05:40:23;3.70;;;2.53;;
25439;SDS011;13365;52.208;5.488;2023-04-19T05:42:49;6.45;;;2.78;;
25439;SDS011;13365;52.208;5.488;2023-04-19T05:45:15;3.80;;;1.80;;
25439;SDS011;13365;52.208;5.488;2023-04-19T05:47:40;6.80;;;2.75;;
25439;SDS011;13365;52.208;5.488;2023-04-19T05:50:06;5.85;;;3.00;;
25439;SDS011;13365;52.208;5.488;2023-04-19T05:52:32;2.58;;;2.08;;
25439;SDS011;13365;52.208;5.488;2023-04-19T05:54:58;5.43;;;3.15;;
25439;SDS011;13365;52.208;5.488;2023-04-19T05:57:23;4.47;;;2.25;;
25439;SDS011;13365;52.208;5.488;2023-04-19T05:59:50;8.38;;;2.85;;
25439;SDS011;13365;52.208;5.488;2023-04-19T06:02:15;7.03;;;1.58;;
25439;SDS011;13365;52.208;5.488;2023-04-19T06:04:41;6.68;;;2.83;;
25439;SDS011;13365;52.208;5.488;2023-04-19T06:07:06;4.80;;;2.30;;
25439;SDS011;13365;52.208;5.488;2023-04-19T06:09:32;4.30;;;2.47;;
25439;SDS011;13365;52.208;5.488;2023-04-19T06:11:59;4.97;;;2.42;;
25439;SDS011;13365;52.208;5.488;2023-04-19T06:14:26;3.47;;;1.90;;
25439;SDS011;13365;52.208;5.488;2023-04-19T06:16:53;4.72;;;1.67;;
25439;SDS011;13365;52.208;5.488;2023-04-19T06:19:18;3.20;;;1.90;;
25439;SDS011;13365;52.208;5.488;2023-04-19T06:21:45;3.33;;;1.60;;
25439;SDS011;13365;52.208;5.488;2023-04-19T06:24:11;2.72;;;1.48;;
25439;SDS011;13365;52.208;5.488;2023-04-19T06:26:37;3.58;;;2.05;;
25439;SDS011;13365;52.208;5.488;2023-04-19T06:29:03;3.03;;;1.35;;
25439;SDS011;13365;52.208;5.488;2023-04-19T06:31:29;2.58;;;1.52;;
25439;SDS011;13365;52.208;5.488;2023-04-19T06:33:54;8.48;;;2.00;;
25439;SDS011;13365;52.208;5.488;2023-04-19T06:36:20;5.13;;;1.77;;
25439;SDS011;13365;52.208;5.488;2023-04-19T06:38:45;4.03;;;1.35;;
25439;SDS011;13365;52.208;5.488;2023-04-19T06:41:11;2.40;;;1.50;;
25439;SDS011;13365;52.208;5.488;2023-04-19T06:43:36;6.90;;;2.47;;
25439;SDS011;13365;52.208;5.488;2023-04-19T06:46:04;2.13;;;1.23;;
25439;SDS011;13365;52.208;5.488;2023-04-19T06:48:30;2.58;;;1.65;;
25439;SDS011;13365;52.208;5.488;2023-04-19T06:50:57;2.45;;;1.20;;
25439;SDS011;13365;52.208;5.488;2023-04-19T06:53:23;1.95;;;1.55;;
25439;SDS011;13365;52.208;5.488;2023-04-19T06:55:52;10.70;;;1.40;;
25439;SDS011;13365;52.208;5.488;2023-04-19T06:58:22;4.03;;;1.27;;
25439;SDS011;13365;52.208;5.488;2023-04-19T07:00:48;3.35;;;1.70;;
25439;SDS011;13365;52.208;5.488;2023-04-19T07:03:13;2.85;;;1.25;;
25439;SDS011;13365;52.208;5.488;2023-04-19T07:05:39;1.38;;;0.90;;
25439;SDS011;13365;52.208;5.488;2023-04-19T07:08:05;3.40;;;1.27;;
25439;SDS011;13365;52.208;5.488;2023-04-19T07:10:31;3.10;;;1.60;;
25439;SDS011;13365;52.208;5.488;2023-04-19T07:12:56;2.75;;;1.42;;
25439;SDS011;13365;52.208;5.488;2023-04-19T07:15:22;1.77;;;1.10;;
25439;SDS011;13365;52.208;5.488;2023-04-19T07:17:47;3.95;;;1.75;;
25439;SDS011;13365;52.208;5.488;2023-04-19T07:20:13;2.13;;;1.20;;
25439;SDS011;13365;52.208;5.488;2023-04-19T07:22:38;3.70;;;1.20;;
25439;SDS011;13365;52.208;5.488;2023-04-19T07:25:04;1.98;;;0.90;;
25439;SDS011;13365;52.208;5.488;2023-04-19T07:27:30;2.58;;;1.35;;
25439;SDS011;13365;52.208;5.488;2023-04-19T07:29:55;4.28;;;1.33;;
25439;SDS011;13365;52.208;5.488;2023-04-19T07:32:20;2.15;;;1.20;;
25439;SDS011;13365;52.208;5.488;2023-04-19T07:34:46;1.98;;;1.13;;
25439;SDS011;13365;52.208;5.488;2023-04-19T07:37:11;2.05;;;1.20;;
25439;SDS011;13365;52.208;5.488;2023-04-19T07:39:38;1.27;;;0.82;;
25439;SDS011;13365;52.208;5.488;2023-04-19T07:42:04;1.77;;;1.08;;
25439;SDS011;13365;52.208;5.488;2023-04-19T07:44:29;3.00;;;1.40;;
25439;SDS011;13365;52.208;5.488;2023-04-19T07:46:55;1.52;;;0.90;;
25439;SDS011;13365;52.208;5.488;2023-04-19T07:49:20;1.98;;;1.17;;
25439;SDS011;13365;52.208;5.488;2023-04-19T07:51:46;1.85;;;1.10;;
25439;SDS011;13365;52.208;5.488;2023-04-19T07:54:11;5.03;;;1.27;;
25439;SDS011;13365;52.208;5.488;2023-04-19T07:56:37;1.85;;;1.25;;
25439;SDS011;13365;52.208;5.488;2023-04-19T07:59:03;0.93;;;0.75;;
25439;SDS011;13365;52.208;5.488;2023-04-19T08:01:28;2.03;;;0.98;;
25439;SDS011;13365;52.208;5.488;2023-04-19T08:03:54;3.95;;;0.98;;
25439;SDS011;13365;52.208;5.488;2023-04-19T08:06:19;1.20;;;0.90;;
25439;SDS011;13365;52.208;5.488;2023-04-19T08:08:45;2.08;;;1.20;;
25439;SDS011;13365;52.208;5.488;2023-04-19T08:11:11;1.27;;;0.80;;
25439;SDS011;13365;52.208;5.488;2023-04-19T08:13:37;1.15;;;0.80;;
25439;SDS011;13365;52.208;5.488;2023-04-19T08:16:02;1.65;;;0.90;;
25439;SDS011;13365;52.208;5.488;2023-04-19T08:18:28;3.03;;;1.35;;
25439;SDS011;13365;52.208;5.488;2023-04-19T08:20:55;1.42;;;0.90;;
25439;SDS011;13365;52.208;5.488;2023-04-19T08:23:22;1.75;;;0.75;;
25439;SDS011;13365;52.208;5.488;2023-04-19T08:25:47;2.90;;;1.00;;
25439;SDS011;13365;52.208;5.488;2023-04-19T08:28:13;2.05;;;1.00;;
25439;SDS011;13365;52.208;5.488;2023-04-19T08:30:39;0.73;;;0.40;;
25439;SDS011;13365;52.208;5.488;2023-04-19T08:33:04;5.30;;;0.70;;
25439;SDS011;13365;52.208;5.488;2023-04-19T08:35:30;0.82;;;0.50;;
25439;SDS011;13365;52.208;5.488;2023-04-19T08:37:56;0.98;;;0.70;;
25439;SDS011;13365;52.208;5.488;2023-04-19T08:40:21;1.00;;;0.43;;
25439;SDS011;13365;52.208;5.488;2023-04-19T08:42:47;3.70;;;0.57;;
25439;SDS011;13365;52.208;5.488;2023-04-19T08:45:12;1.48;;;0.60;;
25439;SDS011;13365;52.208;5.488;2023-04-19T08:47:40;0.70;;;0.60;;
25439;SDS011;13365;52.208;5.488;2023-04-19T08:50:06;0.95;;;0.52;;
25439;SDS011;13365;52.208;5.488;2023-04-19T08:52:33;0.55;;;0.30;;
25439;SDS011;13365;52.208;5.488;2023-04-19T08:55:00;0.85;;;0.57;;
25439;SDS011;13365;52.208;5.488;2023-04-19T08:57:30;0.98;;;0.57;;
25439;SDS011;13365;52.208;5.488;2023-04-19T08:59:56;1.17;;;0.50;;
25439;SDS011;13365;52.208;5.488;2023-04-19T09:02:22;1.17;;;0.60;;
25439;SDS011;13365;52.208;5.488;2023-04-19T09:04:48;0.75;;;0.47;;
25439;SDS011;13365;52.208;5.488;2023-04-19T09:07:23;1.10;;;0.70;;
25439;SDS011;13365;52.208;5.488;2023-04-19T09:12:35;2.38;;;0.73;;
25439;SDS011;13365;52.208;5.488;2023-04-19T09:15:03;3.10;;;0.80;;
25439;SDS011;13365;52.208;5.488;2023-04-19T09:17:32;1.58;;;0.80;;
25439;SDS011;13365;52.208;5.488;2023-04-19T09:19:58;1.42;;;0.75;;
25439;SDS011;13365;52.208;5.488;2023-04-19T09:22:24;5.05;;;0.68;;
25439;SDS011;13365;52.208;5.488;2023-04-19T09:24:50;0.98;;;0.63;;
25439;SDS011;13365;52.208;5.488;2023-04-19T09:27:23;3.63;;;0.75;;
25439;SDS011;13365;52.208;5.488;2023-04-19T09:29:54;3.10;;;1.70;;
25439;SDS011;13365;52.208;5.488;2023-04-19T09:32:21;0.85;;;0.50;;
25439;SDS011;13365;52.208;5.488;2023-04-19T09:34:56;2.85;;;1.17;;
25439;SDS011;13365;52.208;5.488;2023-04-19T09:37:23;0.52;;;0.50;;
25439;SDS011;13365;52.208;5.488;2023-04-19T09:39:49;2.92;;;1.15;;
25439;SDS011;13365;52.208;5.488;2023-04-19T09:42:15;1.83;;;0.55;;
25439;SDS011;13365;52.208;5.488;2023-04-19T09:44:59;1.60;;;1.00;;
25439;SDS011;13365;52.208;5.488;2023-04-19T09:47:26;0.77;;;0.60;;
25439;SDS011;13365;52.208;5.488;2023-04-19T09:50:09;1.25;;;0.65;;
25439;SDS011;13365;52.208;5.488;2023-04-19T09:52:35;5.53;;;0.50;;
25439;SDS011;13365;52.208;5.488;2023-04-19T09:55:02;1.48;;;0.70;;
25439;SDS011;13365;52.208;5.488;2023-04-19T09:57:29;1.05;;;0.50;;
25439;SDS011;13365;52.208;5.488;2023-04-19T09:59:57;1.23;;;0.40;;
25439;SDS011;13365;52.208;5.488;2023-04-19T10:02:23;0.75;;;0.50;;
25439;SDS011;13365;52.208;5.488;2023-04-19T10:04:54;0.60;;;0.32;;
25439;SDS011;13365;52.208;5.488;2023-04-19T10:07:21;0.47;;;0.40;;
25439;SDS011;13365;52.208;5.488;2023-04-19T10:09:47;1.05;;;0.65;;
25439;SDS011;13365;52.208;5.488;2023-04-19T10:12:14;1.67;;;0.60;;
25439;SDS011;13365;52.208;5.488;2023-04-19T10:14:40;4.28;;;0.73;;
25439;SDS011;13365;52.208;5.488;2023-04-19T10:17:07;0.32;;;0.30;;
25439;SDS011;13365;52.208;5.488;2023-04-19T10:19:33;1.20;;;0.50;;
25439;SDS011;13365;52.208;5.488;2023-04-19T10:21:59;0.52;;;0.32;;
25439;SDS011;13365;52.208;5.488;2023-04-19T10:24:29;1.10;;;0.68;;
25439;SDS011;13365;52.208;5.488;2023-04-19T10:32:22;0.63;;;0.38;;
25439;SDS011;13365;52.208;5.488;2023-04-19T10:35:00;0.47;;;0.40;;
25439;SDS011;13365;52.208;5.488;2023-04-19T10:37:29;1.65;;;0.70;;
25439;SDS011;13365;52.208;5.488;2023-04-19T10:39:55;0.65;;;0.43;;
25439;SDS011;13365;52.208;5.488;2023-04-19T10:42:21;0.57;;;0.38;;
25439;SDS011;13365;52.208;5.488;2023-04-19T10:45:30;1.00;;;0.55;;
25439;SDS011;13365;52.208;5.488;2023-04-19T10:47:50;1.13;;;0.40;;
25439;SDS011;13365;52.208;5.488;2023-04-19T10:50:16;1.20;;;0.43;;
25439;SDS011;13365;52.208;5.488;2023-04-19T10:52:42;1.83;;;0.88;;
25439;SDS011;13365;52.208;5.488;2023-04-19T10:55:09;2.08;;;0.65;;
25439;SDS011;13365;52.208;5.488;2023-04-19T10:58:13;1.10;;;0.70;;
25439;SDS011;13365;52.208;5.488;2023-04-19T11:00:31;1.27;;;0.70;;
25439;SDS011;13365;52.208;5.488;2023-04-19T11:03:49;5.15;;;0.40;;
25439;SDS011;13365;52.208;5.488;2023-04-19T11:06:14;1.33;;;0.63;;
25439;SDS011;13365;52.208;5.488;2023-04-19T11:08:51;1.10;;;0.40;;
25439;SDS011;13365;52.208;5.488;2023-04-19T11:11:16;1.60;;;0.68;;
25439;SDS011;13365;52.208;5.488;2023-04-19T11:13:43;2.28;;;0.57;;
25439;SDS011;13365;52.208;5.488;2023-04-19T11:16:10;2.35;;;1.05;;
25439;SDS011;13365;52.208;5.488;2023-04-19T11:18:36;2.05;;;1.30;;
25439;SDS011;13365;52.208;5.488;2023-04-19T11:21:02;1.00;;;0.70;;
25439;SDS011;13365;52.208;5.488;2023-04-19T11:23:27;2.38;;;0.75;;
25439;SDS011;13365;52.208;5.488;2023-04-19T11:25:53;1.13;;;0.70;;
25439;SDS011;13365;52.208;5.488;2023-04-19T11:28:19;1.20;;;0.70;;
25439;SDS011;13365;52.208;5.488;2023-04-19T11:30:45;1.13;;;0.60;;
25439;SDS011;13365;52.208;5.488;2023-04-19T11:33:12;1.50;;;0.65;;
25439;SDS011;13365;52.208;5.488;2023-04-19T11:35:37;1.17;;;0.77;;
25439;SDS011;13365;52.208;5.488;2023-04-19T11:38:03;1.17;;;0.75;;
25439;SDS011;13365;52.208;5.488;2023-04-19T11:40:29;2.42;;;0.80;;
25439;SDS011;13365;52.208;5.488;2023-04-19T11:42:57;2.90;;;1.40;;
25439;SDS011;13365;52.208;5.488;2023-04-19T11:45:27;0.82;;;0.57;;
25439;SDS011;13365;52.208;5.488;2023-04-19T11:47:55;2.28;;;1.17;;
25439;SDS011;13365;52.208;5.488;2023-04-19T11:50:31;2.13;;;0.88;;
25439;SDS011;13365;52.208;5.488;2023-04-19T11:55:46;1.80;;;0.85;;
25439;SDS011;13365;52.208;5.488;2023-04-19T11:58:24;2.53;;;1.25;;
25439;SDS011;13365;52.208;5.488;2023-04-19T12:00:53;9.90;;;0.98;;
25439;SDS011;13365;52.208;5.488;2023-04-19T12:03:22;1.00;;;0.80;;
25439;SDS011;13365;52.208;5.488;2023-04-19T12:05:52;1.50;;;0.90;;
25439;SDS011;13365;52.208;5.488;2023-04-19T12:08:28;4.20;;;1.05;;
25439;SDS011;13365;52.208;5.488;2023-04-19T12:10:57;0.73;;;0.57;;
25439;SDS011;13365;52.208;5.488;2023-04-19T12:13:24;1.45;;;0.90;;
25439;SDS011;13365;52.208;5.488;2023-04-19T12:15:50;1.40;;;0.80;;
25439;SDS011;13365;52.208;5.488;2023-04-19T12:18:15;2.42;;;1.00;;
25439;SDS011;13365;52.208;5.488;2023-04-19T12:20:45;1.00;;;0.70;;
25439;SDS011;13365;52.208;5.488;2023-04-19T12:23:12;1.85;;;1.08;;
25439;SDS011;13365;52.208;5.488;2023-04-19T12:25:39;2.55;;;1.23;;
25439;SDS011;13365;52.208;5.488;2023-04-19T12:28:05;1.50;;;0.93;;
25439;SDS011;13365;52.208;5.488;2023-04-19T12:30:31;1.02;;;0.80;;
25439;SDS011;13365;52.208;5.488;2023-04-19T12:32:57;1.48;;;1.00;;
25439;SDS011;13365;52.208;5.488;2023-04-19T12:35:23;1.45;;;0.90;;
25439;SDS011;13365;52.208;5.488;2023-04-19T12:37:51;1.55;;;0.70;;
25439;SDS011;13365;52.208;5.488;2023-04-19T12:40:18;1.42;;;0.60;;
25439;SDS011;13365;52.208;5.488;2023-04-19T12:42:44;1.80;;;0.80;;
25439;SDS011;13365;52.208;5.488;2023-04-19T12:45:11;2.28;;;0.85;;
25439;SDS011;13365;52.208;5.488;2023-04-19T12:47:37;1.23;;;0.85;;
25439;SDS011;13365;52.208;5.488;2023-04-19T12:50:03;1.17;;;0.75;;
25439;SDS011;13365;52.208;5.488;2023-04-19T12:52:29;4.07;;;0.73;;
25439;SDS011;13365;52.208;5.488;2023-04-19T12:54:55;1.90;;;0.95;;
25439;SDS011;13365;52.208;5.488;2023-04-19T12:57:20;2.17;;;1.35;;
25439;SDS011;13365;52.208;5.488;2023-04-19T12:59:46;1.10;;;0.98;;
25439;SDS011;13365;52.208;5.488;2023-04-19T13:02:11;1.13;;;0.60;;
25439;SDS011;13365;52.208;5.488;2023-04-19T13:04:37;1.77;;;0.90;;
25439;SDS011;13365;52.208;5.488;2023-04-19T13:07:02;0.85;;;0.68;;
25439;SDS011;13365;52.208;5.488;2023-04-19T13:09:28;1.13;;;1.02;;
25439;SDS011;13365;52.208;5.488;2023-04-19T13:11:53;1.17;;;0.77;;
25439;SDS011;13365;52.208;5.488;2023-04-19T13:14:20;2.15;;;0.90;;
25439;SDS011;13365;52.208;5.488;2023-04-19T13:16:45;1.33;;;0.82;;
25439;SDS011;13365;52.208;5.488;2023-04-19T13:19:11;1.33;;;0.75;;
25439;SDS011;13365;52.208;5.488;2023-04-19T13:21:36;1.77;;;1.25;;
25439;SDS011;13365;52.208;5.488;2023-04-19T13:24:02;0.85;;;0.75;;
25439;SDS011;13365;52.208;5.488;2023-04-19T13:26:28;1.88;;;0.90;;
25439;SDS011;13365;52.208;5.488;2023-04-19T13:28:53;1.02;;;0.60;;
25439;SDS011;13365;52.208;5.488;2023-04-19T13:31:19;2.83;;;0.77;;
25439;SDS011;13365;52.208;5.488;2023-04-19T13:33:44;2.50;;;0.82;;
25439;SDS011;13365;52.208;5.488;2023-04-19T13:36:10;0.90;;;0.55;;
25439;SDS011;13365;52.208;5.488;2023-04-19T13:38:36;1.25;;;0.80;;
25439;SDS011;13365;52.208;5.488;2023-04-19T13:41:01;1.13;;;0.82;;
25439;SDS011;13365;52.208;5.488;2023-04-19T13:43:27;0.65;;;0.63;;
25439;SDS011;13365;52.208;5.488;2023-04-19T13:45:53;1.73;;;0.80;;
25439;SDS011;13365;52.208;5.488;2023-04-19T13:48:19;1.27;;;0.95;;
25439;SDS011;13365;52.208;5.488;2023-04-19T13:50:44;0.70;;;0.50;;
25439;SDS011;13365;52.208;5.488;2023-04-19T13:53:10;5.55;;;0.93;;
25439;SDS011;13365;52.208;5.488;2023-04-19T13:55:35;4.80;;;0.85;;
25439;SDS011;13365;52.208;5.488;2023-04-19T13:58:01;1.80;;;0.68;;
25439;SDS011;13365;52.208;5.488;2023-04-19T14:00:27;1.00;;;0.60;;
25439;SDS011;13365;52.208;5.488;2023-04-19T14:02:53;2.17;;;0.80;;
25439;SDS011;13365;52.208;5.488;2023-04-19T14:05:20;2.83;;;0.80;;
25439;SDS011;13365;52.208;5.488;2023-04-19T14:07:45;1.27;;;0.85;;
25439;SDS011;13365;52.208;5.488;2023-04-19T14:10:11;2.45;;;0.80;;
25439;SDS011;13365;52.208;5.488;2023-04-19T14:12:36;2.28;;;0.88;;
25439;SDS011;13365;52.208;5.488;2023-04-19T14:15:02;2.45;;;0.85;;
25439;SDS011;13365;52.208;5.488;2023-04-19T14:17:27;1.33;;;0.75;;
25439;SDS011;13365;52.208;5.488;2023-04-19T14:19:53;1.15;;;0.70;;
25439;SDS011;13365;52.208;5.488;2023-04-19T14:22:20;1.05;;;0.60;;
25439;SDS011;13365;52.208;5.488;2023-04-19T14:24:45;3.60;;;0.77;;
25439;SDS011;13365;52.208;5.488;2023-04-19T14:27:11;2.28;;;0.73;;
25439;SDS011;13365;52.208;5.488;2023-04-19T14:29:36;3.00;;;0.77;;
25439;SDS011;13365;52.208;5.488;2023-04-19T14:32:02;1.23;;;0.70;;
25439;SDS011;13365;52.208;5.488;2023-04-19T14:34:28;0.88;;;0.68;;
25439;SDS011;13365;52.208;5.488;2023-04-19T14:36:53;1.75;;;0.95;;
25439;SDS011;13365;52.208;5.488;2023-04-19T14:39:19;1.30;;;0.98;;
25439;SDS011;13365;52.208;5.488;2023-04-19T14:41:45;1.63;;;0.85;;
25439;SDS011;13365;52.208;5.488;2023-04-19T14:44:10;1.38;;;0.73;;
25439;SDS011;13365;52.208;5.488;2023-04-19T14:46:36;1.83;;;0.70;;
25439;SDS011;13365;52.208;5.488;2023-04-19T14:49:02;1.85;;;0.85;;
25439;SDS011;13365;52.208;5.488;2023-04-19T14:51:29;5.50;;;0.82;;
25439;SDS011;13365;52.208;5.488;2023-04-19T14:53:55;1.65;;;0.80;;
25439;SDS011;13365;52.208;5.488;2023-04-19T14:56:22;2.03;;;0.90;;